Time;durP1;ratioP1;P1;durP2;ratioP2;P2;SDS_P1;SDS_P2;PMS_P1;PMS_P2;Temp;Humidity;BMP_temperature;BMP_pressure;BME280_temperature;BME280_humidity;BME280_pressure;Samples;Min_cycle;Max_cycle;Signal;HPM_P1;HPM_P2
2020/12/10 00:00:54;;;;;;;5.78;3.95;;;3.70;99.90;;;;;;5044258;28;20112;-71
2020/12/10 00:03:20;;;;;;;10.02;6.10;;;3.70;99.90;;;;;;5051616;28;20099;-71
2020/12/10 00:05:46;;;;;;;7.00;3.58;;;3.70;99.90;;;;;;5051169;28;20088;-71
2020/12/10 00:08:11;;;;;;;5.25;3.15;;;3.80;99.90;;;;;;5040655;28;20456;-71
2020/12/10 00:10:37;;;;;;;2.30;1.15;;;3.80;99.90;;;;;;5040819;28;20029;-72
2020/12/10 00:13:03;;;;;;;1.80;0.85;;;3.70;99.90;;;;;;5051261;28;20068;-71
2020/12/10 00:15:29;;;;;;;2.47;1.65;;;3.70;99.90;;;;;;5050626;28;20372;-71
2020/12/10 00:17:54;;;;;;;3.15;1.70;;;3.70;99.90;;;;;;5045826;28;20376;-71
2020/12/10 00:20:20;;;;;;;2.85;1.42;;;3.70;99.90;;;;;;5040718;28;20119;-71
2020/12/10 00:22:46;;;;;;;2.50;1.25;;;3.70;99.90;;;;;;5051282;28;20108;-71
2020/12/10 00:25:12;;;;;;;3.58;1.98;;;3.80;99.90;;;;;;5042982;28;20112;-71
2020/12/10 00:27:38;;;;;;;4.45;1.80;;;3.90;99.90;;;;;;5031261;28;20093;-71
2020/12/10 00:30:07;;;;;;;4.65;2.50;;;3.90;99.90;;;;;;5044288;28;20079;-71
2020/12/10 00:32:33;;;;;;;4.20;2.33;;;3.90;99.90;;;;;;5036770;28;20021;-71
2020/12/10 00:34:59;;;;;;;4.20;2.40;;;4.10;99.90;;;;;;5050490;28;20047;-71
2020/12/10 00:37:29;;;;;;;6.78;2.90;;;4.10;99.90;;;;;;5032170;28;20064;-71
2020/12/10 00:39:55;;;;;;;8.32;4.03;;;4.10;99.90;;;;;;5042860;28;20033;-71
2020/12/10 00:42:22;;;;;;;6.13;3.70;;;4.20;99.90;;;;;;5032078;28;20079;-71
2020/12/10 00:44:47;;;;;;;5.28;3.17;;;4.20;99.90;;;;;;5049486;28;20033;-71
2020/12/10 00:47:18;;;;;;;6.35;3.50;;;4.20;99.90;;;;;;5050127;28;20086;-71
2020/12/10 00:49:45;;;;;;;4.75;2.80;;;4.10;99.90;;;;;;5042463;28;20032;-71
2020/12/10 00:52:11;;;;;;;5.78;3.13;;;4.10;99.90;;;;;;5051859;28;20033;-71
2020/12/10 00:54:37;;;;;;;4.47;2.38;;;4.10;99.90;;;;;;5053056;28;20056;-71
2020/12/10 00:57:08;;;;;;;5.95;3.05;;;4.10;99.90;;;;;;5039062;28;20049;-71
2020/12/10 00:59:34;;;;;;;6.90;3.35;;;4.20;99.90;;;;;;5041731;28;20044;-71
2020/12/10 01:02:00;;;;;;;5.57;3.17;;;4.20;99.90;;;;;;5050209;28;20025;-71
2020/12/10 01:04:25;;;;;;;5.78;2.83;;;4.10;99.90;;;;;;5053563;28;20025;-71
2020/12/10 01:06:51;;;;;;;4.85;2.40;;;4.20;99.90;;;;;;5038253;28;20384;-72
2020/12/10 01:09:17;;;;;;;4.70;2.75;;;4.10;99.90;;;;;;5053900;28;20485;-71
2020/12/10 01:11:42;;;;;;;4.22;2.30;;;4.10;99.90;;;;;;5047199;28;20013;-71
2020/12/10 01:14:08;;;;;;;4.50;2.80;;;4.10;99.90;;;;;;5054478;28;20052;-71
2020/12/10 01:16:35;;;;;;;3.97;2.30;;;4.10;99.90;;;;;;5042651;28;20033;-71
2020/12/10 01:19:00;;;;;;;6.75;3.60;;;4.10;99.90;;;;;;5053679;28;20024;-71
2020/12/10 01:21:31;;;;;;;4.85;2.40;;;4.20;99.90;;;;;;5045099;28;20033;-71
2020/12/10 01:23:57;;;;;;;4.47;2.75;;;4.10;99.90;;;;;;5054760;28;20029;-71
2020/12/10 01:26:24;;;;;;;6.03;2.50;;;4.00;99.90;;;;;;5053756;28;20064;-71
2020/12/10 01:28:50;;;;;;;9.90;4.43;;;3.90;99.90;;;;;;5042181;28;20458;-71
2020/12/10 01:31:16;;;;;;;5.55;3.00;;;4.00;99.90;;;;;;5047725;28;20057;-71
2020/12/10 01:33:41;;;;;;;6.05;3.58;;;4.10;99.90;;;;;;5044616;28;20025;-71
2020/12/10 01:36:07;;;;;;;6.63;2.90;;;4.10;99.90;;;;;;5048598;28;20563;-71
2020/12/10 01:38:33;;;;;;;5.00;2.42;;;4.00;99.90;;;;;;5032375;28;20112;-71
2020/12/10 01:40:58;;;;;;;7.32;3.10;;;3.80;99.90;;;;;;5037628;28;20028;-71
2020/12/10 01:43:24;;;;;;;3.97;2.10;;;3.80;99.90;;;;;;5043784;28;20430;-71
2020/12/10 01:45:50;;;;;;;4.40;2.80;;;3.80;99.90;;;;;;5036283;28;20036;-71
2020/12/10 01:48:16;;;;;;;4.80;2.55;;;3.80;99.90;;;;;;5052462;28;20108;-71
2020/12/10 01:50:41;;;;;;;6.60;2.20;;;3.50;99.90;;;;;;5050001;28;20029;-71
2020/12/10 01:53:08;;;;;;;4.53;2.10;;;3.40;99.90;;;;;;5039726;28;20040;-71
2020/12/10 01:55:33;;;;;;;5.65;2.70;;;3.30;99.90;;;;;;5053103;28;20031;-71
2020/12/10 01:57:59;;;;;;;4.88;2.95;;;3.30;99.90;;;;;;5033564;28;20057;-71
2020/12/10 02:00:27;;;;;;;4.18;2.60;;;3.40;99.90;;;;;;5033869;28;20025;-71
2020/12/10 02:02:56;;;;;;;5.95;2.88;;;3.40;99.90;;;;;;5053659;28;20391;-71
2020/12/10 02:05:22;;;;;;;4.07;2.42;;;3.30;99.90;;;;;;5052734;28;20128;-71
2020/12/10 02:07:48;;;;;;;6.18;3.50;;;3.20;99.90;;;;;;5033956;28;20100;-71
2020/12/10 02:10:14;;;;;;;6.63;3.30;;;3.30;99.90;;;;;;5052951;28;20033;-71
2020/12/10 02:12:40;;;;;;;4.85;2.83;;;3.50;99.90;;;;;;5051021;28;20025;-71
2020/12/10 02:15:07;;;;;;;4.90;2.50;;;3.60;99.90;;;;;;5049803;28;20484;-71
2020/12/10 02:17:33;;;;;;;5.03;2.75;;;3.40;99.90;;;;;;5039716;28;20444;-71
2020/12/10 02:19:58;;;;;;;4.70;2.50;;;3.20;99.90;;;;;;5033498;28;20034;-71
2020/12/10 02:22:24;;;;;;;7.10;3.28;;;3.40;99.90;;;;;;5036890;28;20115;-71
2020/12/10 02:24:50;;;;;;;5.78;2.80;;;3.50;99.90;;;;;;5044574;28;20484;-71
2020/12/10 02:27:15;;;;;;;5.38;2.60;;;3.30;99.90;;;;;;5051218;28;20025;-71
2020/12/10 02:29:41;;;;;;;5.35;3.03;;;3.10;99.90;;;;;;5053459;28;20021;-71
2020/12/10 02:32:07;;;;;;;5.10;2.72;;;3.20;99.90;;;;;;5047480;28;20501;-71
2020/12/10 02:34:33;;;;;;;5.07;2.60;;;3.10;99.90;;;;;;5040543;28;20021;-71
2020/12/10 02:36:58;;;;;;;4.47;3.03;;;3.20;99.90;;;;;;5042389;28;20025;-71
2020/12/10 02:39:24;;;;;;;4.90;2.88;;;3.00;99.90;;;;;;5033127;28;20365;-71
2020/12/10 02:41:50;;;;;;;5.00;2.88;;;2.80;99.90;;;;;;5040338;28;20078;-71
2020/12/10 02:44:16;;;;;;;5.15;3.00;;;2.80;99.90;;;;;;5045340;28;20043;-71
2020/12/10 02:46:41;;;;;;;7.72;3.13;;;2.90;99.90;;;;;;5050690;28;20031;-71
2020/12/10 02:49:07;;;;;;;8.85;3.90;;;2.80;99.90;;;;;;5053004;28;20043;-71
2020/12/10 02:51:33;;;;;;;4.82;3.00;;;2.90;99.90;;;;;;5048137;28;20025;-71
2020/12/10 02:53:59;;;;;;;4.80;2.53;;;2.90;99.90;;;;;;5043607;28;20387;-71
2020/12/10 02:56:25;;;;;;;4.43;2.45;;;3.00;99.90;;;;;;5051927;28;20053;-71
2020/12/10 02:58:50;;;;;;;4.05;2.30;;;2.80;99.90;;;;;;5045799;28;20064;-71
2020/12/10 03:01:16;;;;;;;6.68;2.55;;;2.70;99.90;;;;;;5033835;28;20488;-71
2020/12/10 03:03:41;;;;;;;4.07;2.20;;;2.80;99.90;;;;;;5052214;28;20021;-71
2020/12/10 03:06:08;;;;;;;4.20;2.10;;;2.90;99.90;;;;;;5052194;28;20037;-71
2020/12/10 03:08:41;;;;;;;4.85;2.47;;;2.80;99.90;;;;;;5048074;28;20383;-71
2020/12/10 03:11:07;;;;;;;4.60;2.00;;;2.80;99.90;;;;;;5052775;28;20083;-71
2020/12/10 03:13:33;;;;;;;3.28;1.73;;;2.70;99.90;;;;;;5038821;28;20021;-71
2020/12/10 03:15:59;;;;;;;4.78;2.90;;;2.60;99.90;;;;;;5051332;28;20032;-71
2020/12/10 03:18:25;;;;;;;5.78;2.75;;;2.70;99.90;;;;;;5045012;28;20041;-71
2020/12/10 03:20:51;;;;;;;5.22;2.15;;;2.60;99.90;;;;;;5052347;28;20476;-71
2020/12/10 03:23:17;;;;;;;5.18;2.58;;;2.40;99.90;;;;;;5037284;28;20505;-71
2020/12/10 03:25:43;;;;;;;4.75;1.88;;;2.30;99.90;;;;;;5050839;28;20033;-71
2020/12/10 03:28:10;;;;;;;5.10;2.30;;;2.20;99.90;;;;;;5047540;28;20392;-71
2020/12/10 03:30:36;;;;;;;4.53;2.75;;;2.40;99.90;;;;;;5045109;28;20119;-71
2020/12/10 03:33:02;;;;;;;4.97;2.50;;;2.40;99.90;;;;;;5046828;28;20535;-71
2020/12/10 03:35:28;;;;;;;4.55;2.63;;;2.50;99.90;;;;;;5048822;28;20064;-71
2020/12/10 03:37:54;;;;;;;5.13;2.67;;;2.60;99.90;;;;;;5050084;28;20075;-71
2020/12/10 03:40:20;;;;;;;5.05;2.97;;;2.70;99.90;;;;;;5030642;28;20060;-71
2020/12/10 03:42:46;;;;;;;4.45;2.38;;;2.80;99.90;;;;;;5030259;28;20057;-71
2020/12/10 03:45:12;;;;;;;4.05;2.30;;;2.80;99.90;;;;;;5033262;28;20064;-72
2020/12/10 03:47:37;;;;;;;5.03;2.30;;;2.80;99.90;;;;;;5049700;28;20035;-71
2020/12/10 03:50:04;;;;;;;6.38;2.13;;;2.90;99.90;;;;;;5035811;28;20756;-71
2020/12/10 03:52:30;;;;;;;5.93;2.45;;;2.90;99.90;;;;;;5033780;28;20025;-71
2020/12/10 03:54:56;;;;;;;4.50;2.33;;;2.90;99.90;;;;;;5050571;28;20025;-71
2020/12/10 03:57:21;;;;;;;3.60;1.92;;;2.80;99.90;;;;;;5049481;28;20372;-71
2020/12/10 03:59:47;;;;;;;5.57;2.53;;;2.80;99.90;;;;;;5051010;28;20381;-71
2020/12/10 04:02:13;;;;;;;5.15;2.20;;;2.90;99.90;;;;;;5031092;28;20025;-71
2020/12/10 04:04:38;;;;;;;4.65;2.45;;;2.90;99.90;;;;;;5041245;28;20048;-71
2020/12/10 04:07:04;;;;;;;10.55;3.28;;;2.90;99.90;;;;;;5038966;28;20037;-72
2020/12/10 04:09:30;;;;;;;6.93;3.55;;;2.80;99.90;;;;;;5041926;28;20668;-71
2020/12/10 04:11:55;;;;;;;7.38;4.22;;;2.70;99.90;;;;;;5039254;28;20595;-72
2020/12/10 04:14:21;;;;;;;7.43;3.38;;;2.50;99.90;;;;;;5043663;28;20037;-72
2020/12/10 04:16:47;;;;;;;3.97;1.88;;;2.40;99.90;;;;;;5031937;28;20067;-72
2020/12/10 04:19:13;;;;;;;3.80;1.80;;;2.30;99.90;;;;;;5043818;28;20025;-71
2020/12/10 04:21:39;;;;;;;4.38;2.30;;;2.30;99.90;;;;;;5039970;28;20036;-71
2020/12/10 04:24:05;;;;;;;6.07;2.67;;;2.40;99.90;;;;;;5023562;28;20500;-71
2020/12/10 04:26:31;;;;;;;7.30;4.65;;;2.60;99.90;;;;;;5036984;28;20120;-71
2020/12/10 04:28:56;;;;;;;4.72;2.53;;;2.50;99.90;;;;;;5043348;28;20033;-71
2020/12/10 04:31:22;;;;;;;4.32;2.45;;;2.50;99.90;;;;;;5030817;28;20033;-71
2020/12/10 04:33:49;;;;;;;4.70;2.22;;;2.40;99.90;;;;;;5023492;28;20030;-72
2020/12/10 04:36:14;;;;;;;4.15;2.25;;;2.70;99.90;;;;;;5029959;28;20340;-71
2020/12/10 04:38:40;;;;;;;3.92;2.30;;;2.60;99.90;;;;;;5036431;28;20072;-71
2020/12/10 04:41:08;;;;;;;5.65;2.38;;;2.70;99.90;;;;;;5034186;28;20040;-71
2020/12/10 04:43:34;;;;;;;4.65;2.67;;;2.60;99.90;;;;;;5023486;28;20052;-72
2020/12/10 04:46:02;;;;;;;5.90;2.75;;;2.60;99.90;;;;;;5032158;28;20459;-71
2020/12/10 04:48:30;;;;;;;4.60;2.45;;;2.60;99.90;;;;;;5043558;28;20021;-71
2020/12/10 04:50:58;;;;;;;4.30;2.25;;;2.60;99.90;;;;;;5041921;28;20029;-71
2020/12/10 04:53:25;;;;;;;5.32;2.53;;;2.40;99.90;;;;;;5030373;28;20129;-73
2020/12/10 04:55:55;;;;;;;6.05;2.60;;;2.20;99.90;;;;;;5028797;28;20021;-71
2020/12/10 04:58:21;;;;;;;4.80;2.30;;;2.30;99.90;;;;;;5043263;28;20033;-71
2020/12/10 05:00:48;;;;;;;4.40;2.42;;;2.40;99.90;;;;;;5040593;28;20587;-71
2020/12/10 05:03:15;;;;;;;5.03;2.80;;;2.40;99.90;;;;;;5035420;28;20029;-71
2020/12/10 05:05:42;;;;;;;4.15;2.38;;;2.40;99.90;;;;;;5025139;28;20514;-71
2020/12/10 05:08:07;;;;;;;4.63;2.53;;;2.40;99.90;;;;;;5043419;28;20036;-71
2020/12/10 05:10:42;;;;;;;4.10;2.30;;;2.30;99.90;;;;;;5042598;28;20055;-71
2020/12/10 05:13:12;;;;;;;6.63;2.65;;;2.40;99.90;;;;;;5025294;28;20041;-71
2020/12/10 05:15:39;;;;;;;6.78;2.45;;;2.50;99.90;;;;;;5023986;28;20096;-71
2020/12/10 05:18:13;;;;;;;4.35;2.40;;;2.50;99.90;;;;;;5042057;28;20033;-72
2020/12/10 05:20:47;;;;;;;3.80;2.30;;;2.80;99.90;;;;;;5042708;28;20025;-71
2020/12/10 05:23:14;;;;;;;;;;;2.70;99.90;;;;;;5039168;28;20044;-71
2020/12/10 05:25:52;;;;;;;5.43;2.35;;;2.60;99.90;;;;;;5042798;28;19913;-71
2020/12/10 05:28:23;;;;;;;4.82;2.05;;;2.50;99.90;;;;;;5041143;28;20021;-71
2020/12/10 05:31:10;;;;;;;7.30;3.95;;;2.40;99.90;;;;;;5042602;28;20025;-71
2020/12/10 05:33:36;;;;;;;6.68;3.20;;;2.20;99.90;;;;;;5042178;28;20035;-71
2020/12/10 05:36:05;;;;;;;8.07;3.08;;;2.20;99.90;;;;;;5044378;28;20119;-71
2020/12/10 05:38:31;;;;;;;4.70;2.33;;;2.30;99.90;;;;;;5041710;28;20203;-71
2020/12/10 05:41:19;;;;;;;4.22;2.17;;;2.30;99.90;;;;;;5042777;28;20033;-71
2020/12/10 05:43:45;;;;;;;5.20;2.10;;;2.40;99.90;;;;;;5071388;28;20400;-71
2020/12/10 05:46:22;;;;;;;4.82;2.58;;;2.40;99.90;;;;;;5043575;28;20040;-71
2020/12/10 05:48:50;;;;;;;8.07;3.92;;;2.50;99.90;;;;;;5044966;28;20103;-71
2020/12/10 05:51:21;;;;;;;6.18;3.75;;;2.30;99.90;;;;;;5044522;28;20028;-72
2020/12/10 05:53:48;;;;;;;4.47;2.50;;;2.00;99.90;;;;;;5035318;28;20035;-72
2020/12/10 05:56:17;;;;;;;5.63;2.33;;;2.00;99.90;;;;;;5037613;28;20511;-71
2020/12/10 05:58:51;;;;;;;5.72;2.30;;;2.10;99.90;;;;;;5046956;28;20600;-71
2020/12/10 06:01:34;;;;;;;4.13;2.30;;;2.30;99.90;;;;;;5042112;28;20026;-72
2020/12/10 06:04:01;;;;;;;6.55;2.83;;;2.30;99.90;;;;;;5027115;28;20732;-72
2020/12/10 06:06:29;;;;;;;4.47;2.30;;;2.10;99.90;;;;;;5035966;28;20499;-71
2020/12/10 06:09:00;;;;;;;6.82;2.50;;;2.10;99.90;;;;;;5046574;28;20032;-71
2020/12/10 06:11:27;;;;;;;5.68;2.28;;;2.10;99.90;;;;;;5044613;28;20128;-71
2020/12/10 06:14:06;;;;;;;4.40;2.47;;;2.10;99.90;;;;;;5039502;28;20026;-71
2020/12/10 06:16:33;;;;;;;4.35;2.22;;;2.30;99.90;;;;;;5069175;28;20033;-71
2020/12/10 06:19:04;;;;;;;4.40;2.20;;;2.10;99.90;;;;;;5035990;28;20061;-73
2020/12/10 06:21:43;;;;;;;4.82;2.25;;;2.30;99.90;;;;;;5028859;28;20411;-70
2020/12/10 06:24:24;;;;;;;5.28;1.85;;;2.30;99.90;;;;;;5040028;28;20036;-71
2020/12/10 06:26:51;;;;;;;4.35;2.30;;;2.30;99.90;;;;;;5031715;28;20037;-71
2020/12/10 06:29:37;;;;;;;4.03;2.33;;;2.40;99.90;;;;;;5067319;28;20042;-72
2020/12/10 06:32:10;;;;;;;5.72;2.10;;;2.60;99.90;;;;;;5026075;28;20049;-71
2020/12/10 06:35:04;;;;;;;5.32;2.97;;;2.50;99.90;;;;;;5026258;28;20045;-71
2020/12/10 06:37:30;;;;;;;6.38;3.60;;;2.20;99.90;;;;;;5037773;28;20103;-71
2020/12/10 06:40:01;;;;;;;7.13;3.67;;;2.00;99.90;;;;;;5045473;28;20391;-71
2020/12/10 06:42:47;;;;;;;4.72;2.65;;;2.00;99.90;;;;;;5046021;28;20033;-72
2020/12/10 06:45:27;;;;;;;5.93;3.38;;;1.90;99.90;;;;;;5046465;28;20413;-69
2020/12/10 06:47:53;;;;;;;8.93;4.55;;;1.80;99.90;;;;;;5049839;28;20501;-71
2020/12/10 06:50:39;;;;;;;7.65;3.88;;;1.80;99.90;;;;;;5045447;28;20021;-71
2020/12/10 06:53:10;;;;;;;4.95;3.05;;;1.70;99.90;;;;;;5047228;28;20114;-72
2020/12/10 06:56:06;;;;;;;4.30;2.45;;;1.70;99.90;;;;;;5044334;28;20881;-71
2020/12/10 06:58:35;;;;;;;5.38;2.85;;;1.70;99.90;;;;;;5043167;28;20395;-71
2020/12/10 07:01:18;;;;;;;3.42;2.05;;;1.90;99.90;;;;;;5060412;28;20102;-71
2020/12/10 07:03:45;;;;;;;3.55;1.92;;;1.80;99.90;;;;;;5044945;28;20044;-71
2020/12/10 07:06:20;;;;;;;3.10;1.80;;;1.90;99.90;;;;;;5044697;28;20462;-71
2020/12/10 07:09:06;;;;;;;6.22;3.08;;;1.90;99.90;;;;;;5047512;28;20060;-72
2020/12/10 07:11:37;;;;;;;5.75;2.80;;;2.00;99.90;;;;;;5044644;28;20040;-71
2020/12/10 07:14:25;;;;;;;8.18;4.18;;;1.90;99.90;;;;;;5044797;28;20021;-71
2020/12/10 07:16:52;;;;;;;5.82;3.08;;;1.80;99.90;;;;;;5044680;28;20056;-71
2020/12/10 07:19:19;;;;;;;5.88;2.33;;;1.70;99.90;;;;;;5044284;28;20072;-71
2020/12/10 07:21:56;;;;;;;5.05;2.25;;;1.70;99.90;;;;;;5044464;28;20177;-71
2020/12/10 07:24:22;;;;;;;4.57;2.30;;;1.80;99.90;;;;;;5044647;28;20147;-71
2020/12/10 07:26:48;;;;;;;6.93;2.05;;;2.00;99.90;;;;;;5044489;28;20033;-71
2020/12/10 07:29:14;;;;;;;4.30;2.13;;;2.10;99.90;;;;;;5045143;28;20071;-71
2020/12/10 07:31:42;;;;;;;15.48;4.97;;;2.30;99.90;;;;;;5044789;28;20150;-71
2020/12/10 07:34:11;;;;;;;7.32;4.47;;;2.20;99.90;;;;;;5041196;28;20037;-71
2020/12/10 07:36:49;;;;;;;6.70;4.35;;;2.00;99.90;;;;;;5040961;28;20033;-71
2020/12/10 07:39:36;;;;;;;7.78;3.95;;;2.00;99.90;;;;;;5042317;28;20147;-71
2020/12/10 07:42:01;;;;;;;6.72;2.97;;;1.90;99.90;;;;;;5041865;28;20063;-72
2020/12/10 07:44:29;;;;;;;4.72;2.22;;;1.80;99.90;;;;;;5042170;28;20025;-71
2020/12/10 07:46:59;;;;;;;6.10;2.45;;;2.00;99.90;;;;;;5042532;28;20044;-71
2020/12/10 07:49:32;;;;;;;8.52;4.07;;;2.20;99.90;;;;;;5024728;28;20071;-71
2020/12/10 07:52:12;;;;;;;7.85;4.38;;;2.10;99.90;;;;;;5042022;28;20518;-71
2020/12/10 07:54:52;;;;;;;5.70;2.78;;;2.00;99.90;;;;;;5044265;28;20024;-71
2020/12/10 07:57:26;;;;;;;7.00;4.60;;;2.00;99.90;;;;;;5024358;28;20419;-72
2020/12/10 07:59:56;;;;;;;10.05;5.55;;;1.90;99.90;;;;;;5024457;28;20036;-72
2020/12/10 08:02:39;;;;;;;6.47;3.70;;;1.90;99.90;;;;;;5024219;28;20029;-71
2020/12/10 08:05:13;;;;;;;10.45;4.40;;;1.90;99.90;;;;;;5040088;28;20049;-71
2020/12/10 08:07:43;;;;;;;8.98;5.07;;;2.00;99.90;;;;;;5044072;28;20057;-71
2020/12/10 08:10:22;;;;;;;9.07;4.65;;;2.00;99.90;;;;;;5043513;28;20068;-71
2020/12/10 08:13:25;;;;;;;4.68;2.30;;;1.90;99.90;;;;;;5044250;28;20041;-71
2020/12/10 08:15:50;;;;;;;3.95;2.15;;;2.40;99.90;;;;;;5044125;28;20028;-71
2020/12/10 08:18:19;;;;;;;5.70;2.70;;;2.60;99.90;;;;;;5043769;28;20110;-71
2020/12/10 08:20:51;;;;;;;8.77;4.88;;;2.80;99.90;;;;;;5042258;28;20037;-71
2020/12/10 08:23:19;;;;;;;9.30;5.93;;;2.50;99.90;;;;;;5043268;28;20044;-71
2020/12/10 08:25:52;;;;;;;10.07;5.85;;;2.30;99.90;;;;;;5043950;28;20043;-71
2020/12/10 08:28:18;;;;;;;11.77;6.68;;;2.10;99.90;;;;;;5043467;28;20033;-71
2020/12/10 08:31:05;;;;;;;11.63;6.55;;;2.00;99.90;;;;;;5043950;28;20025;-71
2020/12/10 08:33:35;;;;;;;9.55;6.28;;;1.90;99.90;;;;;;5058674;28;20029;-71
2020/12/10 08:36:02;;;;;;;7.60;4.70;;;2.00;99.90;;;;;;5043040;28;20025;-71
2020/12/10 08:38:30;;;;;;;7.50;3.80;;;2.10;99.90;;;;;;5043341;28;20032;-70
2020/12/10 08:40:59;;;;;;;4.43;2.53;;;2.40;99.90;;;;;;5042405;28;20029;-71
2020/12/10 08:43:26;;;;;;;6.40;2.42;;;2.80;99.90;;;;;;5042500;28;20403;-71
2020/12/10 08:45:52;;;;;;;5.68;2.33;;;3.00;99.90;;;;;;5042806;28;20431;-71
2020/12/10 08:48:29;;;;;;;4.68;2.45;;;3.30;99.90;;;;;;5042996;28;20021;-71
2020/12/10 08:50:58;;;;;;;6.50;4.35;;;3.40;99.90;;;;;;5043828;28;20024;-71
2020/12/10 08:53:25;;;;;;;6.00;3.40;;;3.40;99.90;;;;;;5043225;28;20025;-71
2020/12/10 08:55:54;;;;;;;8.35;5.40;;;3.30;99.90;;;;;;5043458;28;20028;-73
2020/12/10 08:58:22;;;;;;;12.00;6.72;;;3.30;99.90;;;;;;5041721;28;20070;-71
2020/12/10 09:00:48;;;;;;;9.85;5.72;;;3.00;99.90;;;;;;5043437;28;20467;-70
2020/12/10 09:03:15;;;;;;;10.38;5.40;;;2.90;99.90;;;;;;5043503;28;20021;-73
2020/12/10 09:05:44;;;;;;;9.75;5.35;;;3.50;99.90;;;;;;5042086;28;20170;-72
2020/12/10 09:08:11;;;;;;;9.25;5.68;;;3.90;99.90;;;;;;5045262;28;20661;-73
2020/12/10 09:10:37;;;;;;;9.48;5.35;;;3.50;99.90;;;;;;5047233;28;20021;-72
2020/12/10 09:13:03;;;;;;;9.70;5.82;;;3.50;99.90;;;;;;5047712;28;20029;-72
2020/12/10 09:15:42;;;;;;;9.43;5.40;;;3.60;99.90;;;;;;5046031;28;20054;-72
2020/12/10 09:18:08;;;;;;;9.23;5.70;;;3.60;99.90;;;;;;5046830;28;20024;-72
2020/12/10 09:20:34;;;;;;;8.52;6.00;;;3.30;99.90;;;;;;5047292;28;20518;-72
2020/12/10 09:23:00;;;;;;;10.20;5.15;;;3.40;99.90;;;;;;5046791;28;20036;-72
2020/12/10 09:25:25;;;;;;;6.07;3.80;;;3.60;99.90;;;;;;5047016;28;20450;-72
2020/12/10 09:27:51;;;;;;;5.18;3.33;;;3.60;99.90;;;;;;5046691;28;20029;-72
2020/12/10 09:30:17;;;;;;;5.20;2.72;;;3.80;99.90;;;;;;5046624;28;20033;-72
2020/12/10 09:32:43;;;;;;;8.30;4.97;;;3.90;99.90;;;;;;5047209;28;20114;-72
2020/12/10 09:35:11;;;;;;;7.18;2.92;;;3.90;99.90;;;;;;5077079;28;20487;-72
2020/12/10 09:37:39;;;;;;;4.15;2.28;;;3.80;99.90;;;;;;5044654;28;20576;-72
2020/12/10 09:40:07;;;;;;;6.47;3.55;;;4.00;99.90;;;;;;5045319;28;20068;-73
2020/12/10 09:42:41;;;;;;;10.52;5.82;;;4.20;99.90;;;;;;5045163;28;20040;-72
2020/12/10 09:45:08;;;;;;;7.68;4.85;;;4.20;99.90;;;;;;5045032;28;20712;-73
2020/12/10 09:47:39;;;;;;;11.75;7.28;;;3.70;99.90;;;;;;5044849;28;20088;-72
2020/12/10 09:50:18;;;;;;;9.98;6.93;;;3.70;99.90;;;;;;5044668;28;20037;-72
2020/12/10 09:53:08;;;;;;;19.52;7.85;;;3.60;99.90;;;;;;5045263;28;20021;-71
2020/12/10 09:55:59;;;;;;;8.15;4.80;;;3.50;99.90;;;;;;5045187;28;20037;-72
2020/12/10 09:58:25;;;;;;;14.30;8.73;;;3.80;99.90;;;;;;5046203;28;20388;-71
2020/12/10 10:00:51;;;;;;;11.75;8.00;;;3.90;99.90;;;;;;5061960;28;20470;-72
2020/12/10 10:03:18;;;;;;;14.32;8.65;;;3.70;99.90;;;;;;5046137;28;20059;-71
2020/12/10 10:05:45;;;;;;;12.30;7.35;;;3.80;99.90;;;;;;5046524;28;20032;-72
2020/12/10 10:08:11;;;;;;;12.60;7.82;;;3.80;99.90;;;;;;5046304;28;20356;-72
2020/12/10 10:10:40;;;;;;;12.43;6.70;;;3.70;99.90;;;;;;5046494;28;20599;-71
2020/12/10 10:13:06;;;;;;;11.70;7.03;;;3.60;99.90;;;;;;5046309;28;20025;-71
2020/12/10 10:15:32;;;;;;;12.43;7.88;;;3.80;99.90;;;;;;5063939;28;20042;-71
2020/12/10 10:17:59;;;;;;;14.70;7.00;;;3.90;99.90;;;;;;5066132;28;20498;-72
2020/12/10 10:20:25;;;;;;;7.47;4.85;;;3.90;99.90;;;;;;5065827;28;20090;-72
2020/12/10 10:22:51;;;;;;;11.63;7.20;;;4.10;99.90;;;;;;5066320;28;20056;-71
2020/12/10 10:25:19;;;;;;;10.10;6.95;;;4.30;99.90;;;;;;5052254;28;20040;-71
2020/12/10 10:27:46;;;;;;;10.32;6.70;;;4.10;99.90;;;;;;5045881;28;20366;-72
2020/12/10 10:30:11;;;;;;;9.70;6.10;;;4.00;99.90;;;;;;5045929;28;20021;-72
2020/12/10 10:32:37;;;;;;;11.85;6.75;;;4.00;99.90;;;;;;5045890;28;20025;-71
2020/12/10 10:35:04;;;;;;;10.32;6.07;;;4.10;99.90;;;;;;5046415;28;20028;-72
2020/12/10 10:37:58;;;;;;;11.40;6.75;;;4.10;99.90;;;;;;5045347;28;20029;-71
2020/12/10 10:40:25;;;;;;;9.80;5.40;;;4.10;99.90;;;;;;5046755;28;20033;-72
2020/12/10 10:42:53;;;;;;;12.48;6.75;;;4.20;99.90;;;;;;5077745;28;20388;-72
2020/12/10 10:45:19;;;;;;;7.43;5.32;;;4.20;99.90;;;;;;5045383;28;20509;-72
2020/12/10 10:47:45;;;;;;;9.63;5.75;;;4.20;99.90;;;;;;5045762;28;20032;-71
2020/12/10 10:50:14;;;;;;;10.32;6.70;;;4.20;99.90;;;;;;5045796;28;21023;-72
2020/12/10 10:53:01;;;;;;;11.68;5.82;;;4.20;99.90;;;;;;5047143;28;20491;-72
2020/12/10 10:55:29;;;;;;;9.57;6.10;;;4.20;99.90;;;;;;5045268;28;20037;-72
2020/12/10 10:58:01;;;;;;;10.52;7.05;;;4.10;99.90;;;;;;5044967;28;20128;-72
2020/12/10 11:00:27;;;;;;;9.20;6.57;;;4.10;99.90;;;;;;5045382;28;20036;-72
2020/12/10 11:02:53;;;;;;;10.90;5.75;;;4.20;99.90;;;;;;5045860;28;20460;-71
2020/12/10 11:05:19;;;;;;;10.50;5.47;;;4.10;99.90;;;;;;5045238;28;20442;-72
2020/12/10 11:07:45;;;;;;;10.05;5.47;;;4.10;99.90;;;;;;5045008;28;20032;-72
2020/12/10 11:10:12;;;;;;;10.98;6.28;;;4.10;99.90;;;;;;5045090;28;20032;-72
2020/12/10 11:12:42;;;;;;;13.13;8.15;;;4.30;99.90;;;;;;5043643;28;20065;-71
2020/12/10 11:15:09;;;;;;;11.48;7.65;;;4.30;99.90;;;;;;5045121;28;20116;-72
2020/12/10 11:17:35;;;;;;;10.20;6.07;;;4.30;99.90;;;;;;5043005;28;20533;-72
2020/12/10 11:20:02;;;;;;;9.05;5.25;;;4.20;99.90;;;;;;5044591;28;20035;-71
2020/12/10 11:22:29;;;;;;;10.20;5.22;;;4.20;99.90;;;;;;5045013;28;20053;-71
2020/12/10 11:24:58;;;;;;;12.18;6.65;;;4.20;99.90;;;;;;5045235;28;20037;-72
2020/12/10 11:27:24;;;;;;;9.73;5.68;;;4.40;99.90;;;;;;5044823;28;20024;-71
2020/12/10 11:29:49;;;;;;;9.43;6.68;;;4.50;99.90;;;;;;5043968;28;20021;-71
2020/12/10 11:32:15;;;;;;;10.15;5.80;;;4.50;99.90;;;;;;5044734;28;20036;-72
2020/12/10 11:34:43;;;;;;;9.35;6.40;;;4.60;99.90;;;;;;5043010;28;20031;-72
2020/12/10 11:37:09;;;;;;;10.30;5.82;;;4.60;99.90;;;;;;5044926;28;20017;-72
2020/12/10 11:39:35;;;;;;;11.35;5.97;;;4.50;99.90;;;;;;5043311;28;20047;-72
2020/12/10 11:42:02;;;;;;;8.57;4.80;;;4.60;99.90;;;;;;5044509;28;20025;-72
2020/12/10 11:44:28;;;;;;;9.63;5.38;;;4.70;99.90;;;;;;5044413;28;20021;-72
2020/12/10 11:46:53;;;;;;;8.38;5.35;;;4.70;99.90;;;;;;5044741;28;20081;-72
2020/12/10 11:49:19;;;;;;;16.02;10.95;;;4.80;99.90;;;;;;5043623;28;20037;-72
2020/12/10 11:51:46;;;;;;;15.20;10.43;;;4.90;99.90;;;;;;5044331;28;20028;-72
2020/12/10 11:54:17;;;;;;;12.88;8.13;;;4.90;99.90;;;;;;5076514;28;20123;-71
2020/12/10 11:56:43;;;;;;;9.65;6.15;;;5.00;99.90;;;;;;5076334;28;20400;-72
2020/12/10 11:59:10;;;;;;;11.68;6.40;;;4.70;99.90;;;;;;5044394;28;20021;-71
2020/12/10 12:01:49;;;;;;;15.68;8.77;;;4.70;99.90;;;;;;5043634;28;20511;-72
2020/12/10 12:04:15;;;;;;;12.23;6.93;;;4.60;99.90;;;;;;5044358;28;20021;-71
2020/12/10 12:06:40;;;;;;;8.57;5.60;;;4.70;99.90;;;;;;5044221;28;20029;-71
2020/12/10 12:09:06;;;;;;;8.40;5.00;;;4.90;99.90;;;;;;5044064;28;20025;-71
2020/12/10 12:11:34;;;;;;;9.30;5.75;;;4.80;99.90;;;;;;5042767;28;20376;-72
2020/12/10 12:14:11;;;;;;;11.57;5.88;;;4.80;99.90;;;;;;5042777;28;20557;-71
2020/12/10 12:16:44;;;;;;;11.48;6.13;;;4.60;99.90;;;;;;5043062;28;20033;-71
2020/12/10 12:19:09;;;;;;;11.73;5.63;;;4.50;99.90;;;;;;5043721;28;20451;-71
2020/12/10 12:21:36;;;;;;;11.73;5.90;;;4.60;99.90;;;;;;5043725;28;20047;-72
2020/12/10 12:24:22;;;;;;;10.13;6.22;;;4.70;99.90;;;;;;5043441;28;20037;-71
2020/12/10 12:27:04;;;;;;;10.57;5.65;;;4.60;99.90;;;;;;5041441;28;20080;-72
2020/12/10 12:29:31;;;;;;;8.77;4.13;;;4.60;99.90;;;;;;5042313;28;20047;-71
2020/12/10 12:31:57;;;;;;;10.90;6.00;;;4.70;99.90;;;;;;5042520;28;20048;-71
2020/12/10 12:34:26;;;;;;;11.10;6.63;;;4.70;99.90;;;;;;5043436;28;20037;-73
2020/12/10 12:36:51;;;;;;;9.45;5.53;;;4.70;99.90;;;;;;5043880;28;20104;-71
2020/12/10 12:39:25;;;;;;;11.30;4.90;;;4.80;99.90;;;;;;5043741;28;20649;-71
2020/12/10 12:41:51;;;;;;;13.15;7.13;;;4.80;99.90;;;;;;5041522;28;20382;-72
2020/12/10 12:44:17;;;;;;;11.02;4.90;;;4.90;99.90;;;;;;5043631;28;20115;-71
2020/12/10 12:46:43;;;;;;;9.52;5.97;;;5.00;99.90;;;;;;5043316;28;20033;-71
2020/12/10 12:49:08;;;;;;;11.70;6.53;;;5.00;99.90;;;;;;5043608;28;20544;-71
2020/12/10 12:51:34;;;;;;;10.73;6.45;;;4.90;99.90;;;;;;5043928;28;20042;-71
2020/12/10 12:54:00;;;;;;;28.73;20.80;;;4.90;99.90;;;;;;5043807;28;20028;-72
2020/12/10 12:56:25;;;;;;;21.48;13.32;;;5.00;99.90;;;;;;5043080;28;20518;-72
2020/12/10 12:58:58;;;;;;;13.55;8.07;;;5.00;99.90;;;;;;5043595;28;20112;-71
2020/12/10 13:01:23;;;;;;;11.13;6.57;;;5.00;99.90;;;;;;5043175;28;20473;-71
2020/12/10 13:03:50;;;;;;;6.47;4.13;;;5.00;99.90;;;;;;5043732;28;20100;-71